sensor_id;sensor_type;location;lat;lon;timestamp;P1;durP1;ratioP1;P2;durP2;ratioP2
9716;SDS011;4897;43.570;27.832;2024-02-23T00:01:04;37.45;;;33.85;;
9716;SDS011;4897;43.570;27.832;2024-02-23T00:03:31;40.38;;;36.05;;
9716;SDS011;4897;43.570;27.832;2024-02-23T00:05:59;34.88;;;31.30;;
9716;SDS011;4897;43.570;27.832;2024-02-23T00:08:28;30.88;;;27.67;;
9716;SDS011;4897;43.570;27.832;2024-02-23T00:10:55;34.65;;;31.25;;
9716;SDS011;4897;43.570;27.832;2024-02-23T00:13:22;28.13;;;25.17;;
9716;SDS011;4897;43.570;27.832;2024-02-23T00:15:49;26.88;;;23.98;;
9716;SDS011;4897;43.570;27.832;2024-02-23T00:18:17;26.40;;;23.50;;
9716;SDS011;4897;43.570;27.832;2024-02-23T00:20:43;54.45;;;49.55;;
9716;SDS011;4897;43.570;27.832;2024-02-23T00:23:10;42.38;;;38.28;;
9716;SDS011;4897;43.570;27.832;2024-02-23T00:25:39;46.55;;;42.22;;
9716;SDS011;4897;43.570;27.832;2024-02-23T00:28:06;47.42;;;43.13;;
9716;SDS011;4897;43.570;27.832;2024-02-23T00:30:33;42.90;;;39.10;;
9716;SDS011;4897;43.570;27.832;2024-02-23T00:33:00;41.58;;;37.67;;
9716;SDS011;4897;43.570;27.832;2024-02-23T00:35:27;41.92;;;37.83;;
9716;SDS011;4897;43.570;27.832;2024-02-23T00:37:53;40.97;;;37.30;;
9716;SDS011;4897;43.570;27.832;2024-02-23T00:40:20;40.03;;;36.33;;
9716;SDS011;4897;43.570;27.832;2024-02-23T00:42:50;40.85;;;36.97;;
9716;SDS011;4897;43.570;27.832;2024-02-23T00:45:17;36.88;;;33.20;;
9716;SDS011;4897;43.570;27.832;2024-02-23T00:47:44;36.85;;;33.35;;
9716;SDS011;4897;43.570;27.832;2024-02-23T00:50:12;36.10;;;32.70;;
9716;SDS011;4897;43.570;27.832;2024-02-23T00:52:39;36.05;;;32.75;;
9716;SDS011;4897;43.570;27.832;2024-02-23T00:55:07;38.08;;;34.55;;
9716;SDS011;4897;43.570;27.832;2024-02-23T00:57:34;36.00;;;32.55;;
9716;SDS011;4897;43.570;27.832;2024-02-23T01:00:03;39.60;;;35.75;;
9716;SDS011;4897;43.570;27.832;2024-02-23T01:02:31;40.45;;;36.67;;
9716;SDS011;4897;43.570;27.832;2024-02-23T01:04:59;42.08;;;38.22;;
9716;SDS011;4897;43.570;27.832;2024-02-23T01:07:26;43.60;;;39.67;;
9716;SDS011;4897;43.570;27.832;2024-02-23T01:09:52;43.08;;;39.15;;
9716;SDS011;4897;43.570;27.832;2024-02-23T01:12:19;47.92;;;43.67;;
9716;SDS011;4897;43.570;27.832;2024-02-23T01:14:46;44.67;;;40.70;;
9716;SDS011;4897;43.570;27.832;2024-02-23T01:17:15;46.17;;;41.97;;
9716;SDS011;4897;43.570;27.832;2024-02-23T01:19:43;44.97;;;40.55;;
9716;SDS011;4897;43.570;27.832;2024-02-23T01:22:10;40.05;;;36.35;;
9716;SDS011;4897;43.570;27.832;2024-02-23T01:24:37;39.25;;;35.55;;
9716;SDS011;4897;43.570;27.832;2024-02-23T01:27:04;38.22;;;34.72;;
9716;SDS011;4897;43.570;27.832;2024-02-23T01:29:31;37.22;;;33.30;;
9716;SDS011;4897;43.570;27.832;2024-02-23T01:31:58;36.78;;;33.20;;
9716;SDS011;4897;43.570;27.832;2024-02-23T01:34:26;39.15;;;35.55;;
9716;SDS011;4897;43.570;27.832;2024-02-23T01:36:53;36.80;;;33.40;;
9716;SDS011;4897;43.570;27.832;2024-02-23T01:39:20;41.00;;;37.35;;
9716;SDS011;4897;43.570;27.832;2024-02-23T01:41:47;43.55;;;39.38;;
9716;SDS011;4897;43.570;27.832;2024-02-23T01:44:14;40.13;;;36.45;;
9716;SDS011;4897;43.570;27.832;2024-02-23T01:46:42;39.22;;;35.63;;
9716;SDS011;4897;43.570;27.832;2024-02-23T01:49:09;39.13;;;35.35;;
9716;SDS011;4897;43.570;27.832;2024-02-23T01:51:41;37.17;;;33.78;;
9716;SDS011;4897;43.570;27.832;2024-02-23T01:54:08;36.90;;;33.60;;
9716;SDS011;4897;43.570;27.832;2024-02-23T01:56:35;37.72;;;34.22;;
9716;SDS011;4897;43.570;27.832;2024-02-23T01:59:04;37.33;;;33.95;;
9716;SDS011;4897;43.570;27.832;2024-02-23T02:01:33;34.33;;;31.05;;
9716;SDS011;4897;43.570;27.832;2024-02-23T02:04:00;35.40;;;32.08;;
9716;SDS011;4897;43.570;27.832;2024-02-23T02:06:27;36.17;;;32.88;;
9716;SDS011;4897;43.570;27.832;2024-02-23T02:08:55;37.03;;;33.72;;
9716;SDS011;4897;43.570;27.832;2024-02-23T02:11:22;38.20;;;34.85;;
9716;SDS011;4897;43.570;27.832;2024-02-23T02:13:49;38.45;;;34.85;;
9716;SDS011;4897;43.570;27.832;2024-02-23T02:16:16;37.08;;;33.78;;
9716;SDS011;4897;43.570;27.832;2024-02-23T02:18:43;37.80;;;34.38;;
9716;SDS011;4897;43.570;27.832;2024-02-23T02:21:11;40.65;;;36.95;;
9716;SDS011;4897;43.570;27.832;2024-02-23T02:23:38;39.55;;;35.95;;
9716;SDS011;4897;43.570;27.832;2024-02-23T02:26:06;36.40;;;32.95;;
9716;SDS011;4897;43.570;27.832;2024-02-23T02:28:33;34.88;;;31.58;;
9716;SDS011;4897;43.570;27.832;2024-02-23T02:31:00;34.78;;;31.48;;
9716;SDS011;4897;43.570;27.832;2024-02-23T02:33:28;36.72;;;33.53;;
9716;SDS011;4897;43.570;27.832;2024-02-23T02:35:55;37.05;;;33.40;;
9716;SDS011;4897;43.570;27.832;2024-02-23T02:38:22;38.08;;;34.58;;
9716;SDS011;4897;43.570;27.832;2024-02-23T02:40:49;39.85;;;36.25;;
9716;SDS011;4897;43.570;27.832;2024-02-23T02:43:17;40.75;;;37.05;;
9716;SDS011;4897;43.570;27.832;2024-02-23T02:45:45;40.83;;;37.00;;
9716;SDS011;4897;43.570;27.832;2024-02-23T02:48:15;38.80;;;35.40;;
9716;SDS011;4897;43.570;27.832;2024-02-23T02:50:42;37.80;;;34.40;;
9716;SDS011;4897;43.570;27.832;2024-02-23T02:53:09;38.03;;;34.40;;
9716;SDS011;4897;43.570;27.832;2024-02-23T02:55:36;34.33;;;31.08;;
9716;SDS011;4897;43.570;27.832;2024-02-23T02:58:03;35.95;;;32.83;;
9716;SDS011;4897;43.570;27.832;2024-02-23T03:00:32;35.30;;;31.92;;
9716;SDS011;4897;43.570;27.832;2024-02-23T03:02:59;36.90;;;33.60;;
9716;SDS011;4897;43.570;27.832;2024-02-23T03:05:28;37.90;;;34.50;;
9716;SDS011;4897;43.570;27.832;2024-02-23T03:07:59;37.63;;;33.72;;
9716;SDS011;4897;43.570;27.832;2024-02-23T03:10:26;37.75;;;34.15;;
9716;SDS011;4897;43.570;27.832;2024-02-23T03:12:52;38.67;;;35.08;;
9716;SDS011;4897;43.570;27.832;2024-02-23T03:15:19;38.42;;;35.00;;
9716;SDS011;4897;43.570;27.832;2024-02-23T03:17:47;35.65;;;32.30;;
9716;SDS011;4897;43.570;27.832;2024-02-23T03:20:17;34.67;;;31.48;;
9716;SDS011;4897;43.570;27.832;2024-02-23T03:22:44;36.38;;;33.17;;
9716;SDS011;4897;43.570;27.832;2024-02-23T03:25:11;34.90;;;31.70;;
9716;SDS011;4897;43.570;27.832;2024-02-23T03:27:38;33.42;;;30.33;;
9716;SDS011;4897;43.570;27.832;2024-02-23T03:30:05;33.85;;;30.77;;
9716;SDS011;4897;43.570;27.832;2024-02-23T03:32:34;32.85;;;29.85;;
9716;SDS011;4897;43.570;27.832;2024-02-23T03:35:04;33.45;;;30.25;;
9716;SDS011;4897;43.570;27.832;2024-02-23T03:37:33;35.15;;;32.00;;
9716;SDS011;4897;43.570;27.832;2024-02-23T03:40:00;36.92;;;33.35;;
9716;SDS011;4897;43.570;27.832;2024-02-23T03:42:27;37.45;;;34.05;;
9716;SDS011;4897;43.570;27.832;2024-02-23T03:44:54;35.17;;;31.98;;
9716;SDS011;4897;43.570;27.832;2024-02-23T03:47:21;34.15;;;30.95;;
9716;SDS011;4897;43.570;27.832;2024-02-23T03:49:48;27.65;;;24.85;;
9716;SDS011;4897;43.570;27.832;2024-02-23T03:52:16;27.55;;;24.85;;
9716;SDS011;4897;43.570;27.832;2024-02-23T03:54:43;27.52;;;24.88;;
9716;SDS011;4897;43.570;27.832;2024-02-23T03:57:10;26.58;;;23.77;;
9716;SDS011;4897;43.570;27.832;2024-02-23T03:59:37;31.80;;;28.60;;
9716;SDS011;4897;43.570;27.832;2024-02-23T04:02:04;30.27;;;27.38;;
9716;SDS011;4897;43.570;27.832;2024-02-23T04:04:31;31.65;;;28.55;;
9716;SDS011;4897;43.570;27.832;2024-02-23T04:06:58;30.85;;;27.75;;
9716;SDS011;4897;43.570;27.832;2024-02-23T04:09:26;32.60;;;29.60;;
9716;SDS011;4897;43.570;27.832;2024-02-23T04:11:53;36.22;;;32.72;;
9716;SDS011;4897;43.570;27.832;2024-02-23T04:14:20;34.50;;;31.30;;
9716;SDS011;4897;43.570;27.832;2024-02-23T04:16:47;35.90;;;32.65;;
9716;SDS011;4897;43.570;27.832;2024-02-23T04:19:14;34.65;;;31.45;;
9716;SDS011;4897;43.570;27.832;2024-02-23T04:21:41;36.55;;;33.13;;
9716;SDS011;4897;43.570;27.832;2024-02-23T04:24:08;37.92;;;34.47;;
9716;SDS011;4897;43.570;27.832;2024-02-23T04:26:36;38.08;;;34.67;;
9716;SDS011;4897;43.570;27.832;2024-02-23T04:29:03;36.53;;;33.15;;
9716;SDS011;4897;43.570;27.832;2024-02-23T04:31:30;40.58;;;36.97;;
9716;SDS011;4897;43.570;27.832;2024-02-23T04:33:57;38.05;;;34.55;;
9716;SDS011;4897;43.570;27.832;2024-02-23T04:36:23;38.25;;;34.30;;
9716;SDS011;4897;43.570;27.832;2024-02-23T04:38:50;38.10;;;34.60;;
9716;SDS011;4897;43.570;27.832;2024-02-23T04:41:19;36.22;;;32.83;;
9716;SDS011;4897;43.570;27.832;2024-02-23T04:43:48;37.70;;;34.15;;
9716;SDS011;4897;43.570;27.832;2024-02-23T04:46:15;36.13;;;32.63;;
9716;SDS011;4897;43.570;27.832;2024-02-23T04:48:42;33.38;;;30.17;;
9716;SDS011;4897;43.570;27.832;2024-02-23T04:51:10;33.95;;;30.45;;
9716;SDS011;4897;43.570;27.832;2024-02-23T04:53:37;39.00;;;35.15;;
9716;SDS011;4897;43.570;27.832;2024-02-23T04:56:04;36.17;;;32.47;;
9716;SDS011;4897;43.570;27.832;2024-02-23T04:58:31;38.40;;;34.63;;
9716;SDS011;4897;43.570;27.832;2024-02-23T05:01:00;38.85;;;35.17;;
9716;SDS011;4897;43.570;27.832;2024-02-23T05:03:28;40.47;;;36.60;;
9716;SDS011;4897;43.570;27.832;2024-02-23T05:05:55;37.28;;;33.67;;
9716;SDS011;4897;43.570;27.832;2024-02-23T05:08:23;36.72;;;33.15;;
9716;SDS011;4897;43.570;27.832;2024-02-23T05:10:50;36.95;;;33.30;;
9716;SDS011;4897;43.570;27.832;2024-02-23T05:13:17;35.22;;;31.83;;
9716;SDS011;4897;43.570;27.832;2024-02-23T05:15:44;33.63;;;30.33;;
9716;SDS011;4897;43.570;27.832;2024-02-23T05:18:12;31.48;;;28.40;;
9716;SDS011;4897;43.570;27.832;2024-02-23T05:20:39;31.92;;;28.88;;
9716;SDS011;4897;43.570;27.832;2024-02-23T05:23:06;34.58;;;31.05;;
9716;SDS011;4897;43.570;27.832;2024-02-23T05:25:33;34.75;;;31.25;;
9716;SDS011;4897;43.570;27.832;2024-02-23T05:28:00;37.42;;;33.47;;
9716;SDS011;4897;43.570;27.832;2024-02-23T05:30:27;36.53;;;32.92;;
9716;SDS011;4897;43.570;27.832;2024-02-23T05:32:56;36.30;;;32.80;;
9716;SDS011;4897;43.570;27.832;2024-02-23T05:35:25;35.97;;;32.35;;
9716;SDS011;4897;43.570;27.832;2024-02-23T05:37:52;36.42;;;32.83;;
9716;SDS011;4897;43.570;27.832;2024-02-23T05:40:20;34.83;;;31.33;;
9716;SDS011;4897;43.570;27.832;2024-02-23T05:42:47;33.92;;;30.35;;
9716;SDS011;4897;43.570;27.832;2024-02-23T05:45:14;34.78;;;31.45;;
9716;SDS011;4897;43.570;27.832;2024-02-23T05:47:41;33.17;;;29.77;;
9716;SDS011;4897;43.570;27.832;2024-02-23T05:50:08;33.13;;;29.75;;
9716;SDS011;4897;43.570;27.832;2024-02-23T05:52:37;33.10;;;29.75;;
9716;SDS011;4897;43.570;27.832;2024-02-23T05:55:04;32.75;;;29.42;;
9716;SDS011;4897;43.570;27.832;2024-02-23T05:57:33;32.17;;;28.95;;
9716;SDS011;4897;43.570;27.832;2024-02-23T06:00:00;31.30;;;28.00;;
9716;SDS011;4897;43.570;27.832;2024-02-23T06:02:26;30.67;;;27.48;;
9716;SDS011;4897;43.570;27.832;2024-02-23T06:04:53;32.75;;;29.58;;
9716;SDS011;4897;43.570;27.832;2024-02-23T06:07:20;33.92;;;30.35;;
9716;SDS011;4897;43.570;27.832;2024-02-23T06:09:55;32.03;;;28.73;;
9716;SDS011;4897;43.570;27.832;2024-02-23T06:12:23;32.40;;;29.10;;
9716;SDS011;4897;43.570;27.832;2024-02-23T06:14:52;30.23;;;26.70;;
9716;SDS011;4897;43.570;27.832;2024-02-23T06:17:20;28.92;;;25.92;;
9716;SDS011;4897;43.570;27.832;2024-02-23T06:19:48;27.10;;;24.40;;
9716;SDS011;4897;43.570;27.832;2024-02-23T06:22:15;28.42;;;25.58;;
9716;SDS011;4897;43.570;27.832;2024-02-23T06:24:46;30.30;;;27.20;;
9716;SDS011;4897;43.570;27.832;2024-02-23T06:27:14;30.88;;;27.70;;
9716;SDS011;4897;43.570;27.832;2024-02-23T06:29:41;30.50;;;27.50;;
9716;SDS011;4897;43.570;27.832;2024-02-23T06:32:08;29.25;;;26.45;;
9716;SDS011;4897;43.570;27.832;2024-02-23T06:34:35;31.08;;;28.02;;
9716;SDS011;4897;43.570;27.832;2024-02-23T06:37:02;30.88;;;27.83;;
9716;SDS011;4897;43.570;27.832;2024-02-23T06:39:29;29.85;;;27.05;;
9716;SDS011;4897;43.570;27.832;2024-02-23T06:41:56;29.23;;;26.25;;
9716;SDS011;4897;43.570;27.832;2024-02-23T06:44:27;29.85;;;26.60;;
9716;SDS011;4897;43.570;27.832;2024-02-23T06:46:54;30.17;;;27.08;;
9716;SDS011;4897;43.570;27.832;2024-02-23T06:49:20;29.85;;;26.95;;
9716;SDS011;4897;43.570;27.832;2024-02-23T06:51:50;28.02;;;25.33;;
9716;SDS011;4897;43.570;27.832;2024-02-23T06:54:20;28.75;;;25.65;;
9716;SDS011;4897;43.570;27.832;2024-02-23T06:56:47;29.75;;;27.05;;
9716;SDS011;4897;43.570;27.832;2024-02-23T06:59:14;29.10;;;25.98;;
9716;SDS011;4897;43.570;27.832;2024-02-23T07:01:51;29.48;;;26.58;;
9716;SDS011;4897;43.570;27.832;2024-02-23T07:04:19;27.70;;;24.90;;
9716;SDS011;4897;43.570;27.832;2024-02-23T07:06:46;27.98;;;25.25;;
9716;SDS011;4897;43.570;27.832;2024-02-23T07:09:13;27.90;;;25.10;;
9716;SDS011;4897;43.570;27.832;2024-02-23T07:11:40;27.58;;;24.98;;
9716;SDS011;4897;43.570;27.832;2024-02-23T07:14:08;26.92;;;24.42;;
9716;SDS011;4897;43.570;27.832;2024-02-23T07:16:37;26.95;;;24.40;;
9716;SDS011;4897;43.570;27.832;2024-02-23T07:19:06;26.38;;;24.02;;
9716;SDS011;4897;43.570;27.832;2024-02-23T07:21:33;27.10;;;24.33;;
9716;SDS011;4897;43.570;27.832;2024-02-23T07:24:00;24.05;;;21.77;;
9716;SDS011;4897;43.570;27.832;2024-02-23T07:26:27;23.40;;;20.98;;
9716;SDS011;4897;43.570;27.832;2024-02-23T07:28:54;25.55;;;23.25;;
9716;SDS011;4897;43.570;27.832;2024-02-23T07:31:21;26.08;;;23.77;;
9716;SDS011;4897;43.570;27.832;2024-02-23T07:33:48;25.88;;;23.48;;
9716;SDS011;4897;43.570;27.832;2024-02-23T07:36:17;26.70;;;24.15;;
9716;SDS011;4897;43.570;27.832;2024-02-23T07:38:44;24.73;;;22.52;;
9716;SDS011;4897;43.570;27.832;2024-02-23T07:41:11;27.05;;;23.92;;
9716;SDS011;4897;43.570;27.832;2024-02-23T07:43:39;25.35;;;23.02;;
9716;SDS011;4897;43.570;27.832;2024-02-23T07:46:06;25.38;;;23.17;;
9716;SDS011;4897;43.570;27.832;2024-02-23T07:48:34;25.58;;;23.15;;
9716;SDS011;4897;43.570;27.832;2024-02-23T07:51:01;23.35;;;20.95;;
9716;SDS011;4897;43.570;27.832;2024-02-23T07:53:30;22.38;;;20.23;;
9716;SDS011;4897;43.570;27.832;2024-02-23T07:55:58;22.58;;;20.42;;
9716;SDS011;4897;43.570;27.832;2024-02-23T07:58:27;26.05;;;23.60;;
9716;SDS011;4897;43.570;27.832;2024-02-23T08:00:54;25.15;;;22.95;;
9716;SDS011;4897;43.570;27.832;2024-02-23T08:03:21;24.48;;;22.40;;
9716;SDS011;4897;43.570;27.832;2024-02-23T08:05:48;24.83;;;22.52;;
9716;SDS011;4897;43.570;27.832;2024-02-23T08:08:15;24.83;;;22.52;;
9716;SDS011;4897;43.570;27.832;2024-02-23T08:10:44;23.85;;;21.65;;
9716;SDS011;4897;43.570;27.832;2024-02-23T08:13:13;23.88;;;21.77;;
9716;SDS011;4897;43.570;27.832;2024-02-23T08:15:41;23.95;;;21.75;;
9716;SDS011;4897;43.570;27.832;2024-02-23T08:18:08;24.63;;;22.42;;
9716;SDS011;4897;43.570;27.832;2024-02-23T08:20:35;25.20;;;23.00;;
9716;SDS011;4897;43.570;27.832;2024-02-23T08:23:02;24.50;;;22.08;;
9716;SDS011;4897;43.570;27.832;2024-02-23T08:25:29;25.67;;;23.08;;
9716;SDS011;4897;43.570;27.832;2024-02-23T08:27:58;26.55;;;24.05;;
9716;SDS011;4897;43.570;27.832;2024-02-23T08:30:24;24.33;;;22.13;;
9716;SDS011;4897;43.570;27.832;2024-02-23T08:32:51;22.33;;;20.33;;
9716;SDS011;4897;43.570;27.832;2024-02-23T08:35:18;21.25;;;19.10;;
9716;SDS011;4897;43.570;27.832;2024-02-23T08:37:45;21.02;;;19.10;;
9716;SDS011;4897;43.570;27.832;2024-02-23T08:40:12;20.58;;;18.58;;
9716;SDS011;4897;43.570;27.832;2024-02-23T08:42:39;23.85;;;21.75;;
9716;SDS011;4897;43.570;27.832;2024-02-23T08:45:09;23.77;;;21.77;;
9716;SDS011;4897;43.570;27.832;2024-02-23T08:47:37;22.95;;;20.88;;
9716;SDS011;4897;43.570;27.832;2024-02-23T08:50:05;23.40;;;20.92;;
9716;SDS011;4897;43.570;27.832;2024-02-23T08:52:32;22.02;;;19.65;;
9716;SDS011;4897;43.570;27.832;2024-02-23T08:54:59;21.45;;;19.42;;
9716;SDS011;4897;43.570;27.832;2024-02-23T08:57:27;22.90;;;20.85;;
9716;SDS011;4897;43.570;27.832;2024-02-23T08:59:53;22.27;;;19.92;;
9716;SDS011;4897;43.570;27.832;2024-02-23T09:02:25;24.60;;;22.55;;
9716;SDS011;4897;43.570;27.832;2024-02-23T09:04:52;23.58;;;21.65;;
9716;SDS011;4897;43.570;27.832;2024-02-23T09:07:20;24.35;;;22.15;;
9716;SDS011;4897;43.570;27.832;2024-02-23T09:09:49;24.92;;;22.73;;
9716;SDS011;4897;43.570;27.832;2024-02-23T09:12:16;22.90;;;20.65;;
9716;SDS011;4897;43.570;27.832;2024-02-23T09:14:47;21.30;;;19.17;;
9716;SDS011;4897;43.570;27.832;2024-02-23T09:17:14;22.35;;;20.25;;
9716;SDS011;4897;43.570;27.832;2024-02-23T09:19:45;22.27;;;20.27;;
9716;SDS011;4897;43.570;27.832;2024-02-23T09:22:12;20.48;;;18.67;;
9716;SDS011;4897;43.570;27.832;2024-02-23T09:24:39;25.83;;;23.35;;
9716;SDS011;4897;43.570;27.832;2024-02-23T09:27:06;24.13;;;22.15;;
9716;SDS011;4897;43.570;27.832;2024-02-23T09:29:33;23.27;;;21.27;;
9716;SDS011;4897;43.570;27.832;2024-02-23T09:32:01;21.52;;;19.45;;
9716;SDS011;4897;43.570;27.832;2024-02-23T09:34:30;21.50;;;19.58;;
9716;SDS011;4897;43.570;27.832;2024-02-23T09:37:03;22.05;;;20.05;;
9716;SDS011;4897;43.570;27.832;2024-02-23T09:39:30;22.42;;;20.42;;
9716;SDS011;4897;43.570;27.832;2024-02-23T09:41:57;21.05;;;19.05;;
9716;SDS011;4897;43.570;27.832;2024-02-23T09:44:24;22.88;;;20.52;;
9716;SDS011;4897;43.570;27.832;2024-02-23T09:46:58;21.65;;;19.55;;
9716;SDS011;4897;43.570;27.832;2024-02-23T09:49:33;21.33;;;19.45;;
9716;SDS011;4897;43.570;27.832;2024-02-23T09:52:05;24.15;;;22.15;;
9716;SDS011;4897;43.570;27.832;2024-02-23T09:54:36;24.83;;;22.73;;
9716;SDS011;4897;43.570;27.832;2024-02-23T09:57:05;24.60;;;22.30;;
9716;SDS011;4897;43.570;27.832;2024-02-23T09:59:33;22.27;;;19.95;;
9716;SDS011;4897;43.570;27.832;2024-02-23T10:02:01;22.02;;;19.80;;
9716;SDS011;4897;43.570;27.832;2024-02-23T10:04:29;21.42;;;19.50;;
9716;SDS011;4897;43.570;27.832;2024-02-23T10:06:56;21.88;;;19.75;;
9716;SDS011;4897;43.570;27.832;2024-02-23T10:09:25;21.42;;;19.45;;
9716;SDS011;4897;43.570;27.832;2024-02-23T10:11:52;21.60;;;19.58;;
9716;SDS011;4897;43.570;27.832;2024-02-23T10:14:19;24.40;;;22.30;;
9716;SDS011;4897;43.570;27.832;2024-02-23T10:16:46;24.83;;;22.73;;
9716;SDS011;4897;43.570;27.832;2024-02-23T10:19:18;24.65;;;22.35;;
9716;SDS011;4897;43.570;27.832;2024-02-23T10:21:45;24.58;;;22.38;;
9716;SDS011;4897;43.570;27.832;2024-02-23T10:24:12;24.40;;;21.95;;
9716;SDS011;4897;43.570;27.832;2024-02-23T10:26:41;24.75;;;22.45;;
9716;SDS011;4897;43.570;27.832;2024-02-23T10:29:08;24.13;;;22.17;;
9716;SDS011;4897;43.570;27.832;2024-02-23T10:31:35;23.73;;;21.65;;
9716;SDS011;4897;43.570;27.832;2024-02-23T10:34:06;23.40;;;21.40;;
9716;SDS011;4897;43.570;27.832;2024-02-23T10:36:37;24.48;;;22.15;;
9716;SDS011;4897;43.570;27.832;2024-02-23T10:39:07;23.60;;;21.60;;
9716;SDS011;4897;43.570;27.832;2024-02-23T10:41:35;24.70;;;22.33;;
9716;SDS011;4897;43.570;27.832;2024-02-23T10:44:05;20.08;;;18.38;;
9716;SDS011;4897;43.570;27.832;2024-02-23T10:46:33;19.63;;;17.92;;
9716;SDS011;4897;43.570;27.832;2024-02-23T10:49:00;19.17;;;17.52;;
9716;SDS011;4897;43.570;27.832;2024-02-23T10:51:27;23.85;;;18.42;;
9716;SDS011;4897;43.570;27.832;2024-02-23T10:53:55;19.70;;;18.08;;
9716;SDS011;4897;43.570;27.832;2024-02-23T10:56:23;19.83;;;18.02;;
9716;SDS011;4897;43.570;27.832;2024-02-23T10:58:51;19.35;;;17.75;;
9716;SDS011;4897;43.570;27.832;2024-02-23T11:01:19;20.35;;;18.13;;
9716;SDS011;4897;43.570;27.832;2024-02-23T11:03:48;19.75;;;18.05;;
9716;SDS011;4897;43.570;27.832;2024-02-23T11:06:16;19.20;;;17.50;;
9716;SDS011;4897;43.570;27.832;2024-02-23T11:08:46;21.05;;;19.02;;
9716;SDS011;4897;43.570;27.832;2024-02-23T11:11:16;19.60;;;17.58;;
9716;SDS011;4897;43.570;27.832;2024-02-23T11:13:44;19.30;;;17.02;;
9716;SDS011;4897;43.570;27.832;2024-02-23T11:16:20;19.27;;;17.58;;
9716;SDS011;4897;43.570;27.832;2024-02-23T11:18:49;18.55;;;16.95;;
9716;SDS011;4897;43.570;27.832;2024-02-23T11:21:33;19.05;;;17.20;;
9716;SDS011;4897;43.570;27.832;2024-02-23T11:24:02;19.42;;;17.52;;
9716;SDS011;4897;43.570;27.832;2024-02-23T11:26:30;20.15;;;18.08;;
9716;SDS011;4897;43.570;27.832;2024-02-23T11:28:58;19.15;;;17.17;;
9716;SDS011;4897;43.570;27.832;2024-02-23T11:31:29;22.13;;;20.30;;
9716;SDS011;4897;43.570;27.832;2024-02-23T11:33:57;21.63;;;19.80;;
9716;SDS011;4897;43.570;27.832;2024-02-23T11:36:27;20.60;;;18.90;;
9716;SDS011;4897;43.570;27.832;2024-02-23T11:38:56;22.05;;;20.15;;
9716;SDS011;4897;43.570;27.832;2024-02-23T11:41:24;18.33;;;16.80;;
9716;SDS011;4897;43.570;27.832;2024-02-23T11:43:52;19.60;;;17.75;;
9716;SDS011;4897;43.570;27.832;2024-02-23T11:46:23;18.70;;;17.10;;
9716;SDS011;4897;43.570;27.832;2024-02-23T11:48:54;21.73;;;19.48;;
9716;SDS011;4897;43.570;27.832;2024-02-23T11:51:21;20.23;;;18.33;;
9716;SDS011;4897;43.570;27.832;2024-02-23T11:53:51;19.00;;;17.50;;
9716;SDS011;4897;43.570;27.832;2024-02-23T11:56:21;17.95;;;16.45;;
9716;SDS011;4897;43.570;27.832;2024-02-23T11:58:49;19.65;;;18.00;;
9716;SDS011;4897;43.570;27.832;2024-02-23T12:01:16;20.00;;;18.20;;
9716;SDS011;4897;43.570;27.832;2024-02-23T12:03:43;18.95;;;17.40;;
9716;SDS011;4897;43.570;27.832;2024-02-23T12:06:12;19.23;;;17.55;;
9716;SDS011;4897;43.570;27.832;2024-02-23T12:08:41;20.30;;;18.23;;
9716;SDS011;4897;43.570;27.832;2024-02-23T12:11:10;19.83;;;18.13;;
9716;SDS011;4897;43.570;27.832;2024-02-23T12:13:39;20.27;;;18.13;;
9716;SDS011;4897;43.570;27.832;2024-02-23T12:16:07;19.05;;;17.40;;
9716;SDS011;4897;43.570;27.832;2024-02-23T12:18:35;18.48;;;16.75;;
9716;SDS011;4897;43.570;27.832;2024-02-23T12:21:04;17.55;;;16.15;;
9716;SDS011;4897;43.570;27.832;2024-02-23T12:23:40;18.08;;;16.58;;
9716;SDS011;4897;43.570;27.832;2024-02-23T12:26:08;19.63;;;17.92;;
9716;SDS011;4897;43.570;27.832;2024-02-23T12:28:36;18.38;;;16.67;;
9716;SDS011;4897;43.570;27.832;2024-02-23T12:31:03;18.15;;;16.50;;
9716;SDS011;4897;43.570;27.832;2024-02-23T12:33:31;19.23;;;17.48;;
9716;SDS011;4897;43.570;27.832;2024-02-23T12:35:59;18.48;;;16.55;;
9716;SDS011;4897;43.570;27.832;2024-02-23T12:38:27;19.30;;;17.42;;
9716;SDS011;4897;43.570;27.832;2024-02-23T12:40:58;17.52;;;16.00;;
9716;SDS011;4897;43.570;27.832;2024-02-23T12:43:26;18.15;;;16.48;;
9716;SDS011;4897;43.570;27.832;2024-02-23T12:45:53;18.35;;;16.75;;
9716;SDS011;4897;43.570;27.832;2024-02-23T12:48:21;18.73;;;16.13;;
9716;SDS011;4897;43.570;27.832;2024-02-23T12:50:48;15.43;;;14.23;;
9716;SDS011;4897;43.570;27.832;2024-02-23T12:53:30;16.90;;;15.50;;
9716;SDS011;4897;43.570;27.832;2024-02-23T12:56:00;16.17;;;14.85;;
9716;SDS011;4897;43.570;27.832;2024-02-23T12:58:28;17.05;;;15.63;;
9716;SDS011;4897;43.570;27.832;2024-02-23T13:00:55;17.75;;;16.23;;
9716;SDS011;4897;43.570;27.832;2024-02-23T13:03:23;16.83;;;15.45;;
9716;SDS011;4897;43.570;27.832;2024-02-23T13:05:50;16.70;;;15.27;;
9716;SDS011;4897;43.570;27.832;2024-02-23T13:08:17;16.42;;;15.13;;
9716;SDS011;4897;43.570;27.832;2024-02-23T13:10:44;18.48;;;16.55;;
9716;SDS011;4897;43.570;27.832;2024-02-23T13:13:13;17.05;;;15.48;;
9716;SDS011;4897;43.570;27.832;2024-02-23T13:15:40;17.00;;;15.50;;
9716;SDS011;4897;43.570;27.832;2024-02-23T13:18:07;15.73;;;14.43;;
9716;SDS011;4897;43.570;27.832;2024-02-23T13:20:38;16.00;;;14.80;;
9716;SDS011;4897;43.570;27.832;2024-02-23T13:23:06;16.98;;;14.80;;
9716;SDS011;4897;43.570;27.832;2024-02-23T13:25:34;19.42;;;17.25;;
9716;SDS011;4897;43.570;27.832;2024-02-23T13:28:01;17.17;;;15.77;;
9716;SDS011;4897;43.570;27.832;2024-02-23T13:30:31;16.58;;;15.27;;
9716;SDS011;4897;43.570;27.832;2024-02-23T13:32:58;16.58;;;15.02;;
9716;SDS011;4897;43.570;27.832;2024-02-23T13:35:25;15.98;;;14.52;;
9716;SDS011;4897;43.570;27.832;2024-02-23T13:37:53;17.85;;;16.42;;
9716;SDS011;4897;43.570;27.832;2024-02-23T13:40:20;16.45;;;14.95;;
9716;SDS011;4897;43.570;27.832;2024-02-23T13:42:50;17.70;;;16.20;;
9716;SDS011;4897;43.570;27.832;2024-02-23T13:45:18;18.48;;;16.95;;
9716;SDS011;4897;43.570;27.832;2024-02-23T13:47:56;17.40;;;15.75;;
9716;SDS011;4897;43.570;27.832;2024-02-23T13:50:27;18.80;;;16.52;;
9716;SDS011;4897;43.570;27.832;2024-02-23T13:52:55;17.67;;;16.08;;
9716;SDS011;4897;43.570;27.832;2024-02-23T13:55:22;17.45;;;15.90;;
9716;SDS011;4897;43.570;27.832;2024-02-23T13:57:49;16.27;;;14.98;;
9716;SDS011;4897;43.570;27.832;2024-02-23T14:00:17;15.65;;;14.32;;
9716;SDS011;4897;43.570;27.832;2024-02-23T14:02:45;16.77;;;15.38;;
9716;SDS011;4897;43.570;27.832;2024-02-23T14:05:14;17.67;;;16.02;;
9716;SDS011;4897;43.570;27.832;2024-02-23T14:07:43;17.40;;;15.88;;
9716;SDS011;4897;43.570;27.832;2024-02-23T14:10:13;17.20;;;15.80;;
9716;SDS011;4897;43.570;27.832;2024-02-23T14:12:40;17.30;;;15.80;;
9716;SDS011;4897;43.570;27.832;2024-02-23T14:15:08;17.55;;;16.15;;
9716;SDS011;4897;43.570;27.832;2024-02-23T14:17:35;18.05;;;16.50;;
9716;SDS011;4897;43.570;27.832;2024-02-23T14:20:02;17.50;;;16.15;;
9716;SDS011;4897;43.570;27.832;2024-02-23T14:22:31;17.60;;;16.08;;
9716;SDS011;4897;43.570;27.832;2024-02-23T14:24:58;17.55;;;16.08;;
9716;SDS011;4897;43.570;27.832;2024-02-23T14:27:25;17.80;;;16.20;;
9716;SDS011;4897;43.570;27.832;2024-02-23T14:29:55;17.73;;;16.20;;
9716;SDS011;4897;43.570;27.832;2024-02-23T14:32:22;16.45;;;15.10;;
9716;SDS011;4897;43.570;27.832;2024-02-23T14:34:49;17.70;;;16.23;;
9716;SDS011;4897;43.570;27.832;2024-02-23T14:37:16;17.92;;;16.40;;